This is the latest recevied weather packets stored in our database for station/object IZ1UKX-13. If no packets are shown the sender has not sent any weather packets the latest 10 day(s).
| Time | Temp. | Humidity | Pressure | Rain* | Wind** | Luminosity | Snow |
|---|---|---|---|---|---|---|---|
| 1777579625 | 12.22° C | 63% | 1024.5 hPa | 0 mm | - | 0 W/m² | - |
| 1777579325 | 12.22° C | 63% | 1024.5 hPa | 0 mm | - | 0 W/m² | - |
| 1777579026 | 12.78° C | 63% | 1024.5 hPa | 0 mm | - | 0 W/m² | - |
| 1777577825 | 12.78° C | 63% | 1024.5 hPa | 0 mm | - | 0 W/m² | - |
| 1777577225 | 12.78° C | 63% | 1024.5 hPa | 0 mm | - | 0 W/m² | - |
| 1777576025 | 12.78° C | 63% | 1024.5 hPa | 0 mm | - | 0 W/m² | - |
| 1777574801 | 13.89° C | 61% | 1024.5 hPa | 0 mm | - | 0 W/m² | - |
| 1777573300 | 15° C | 59% | 1024 hPa | 0 mm | - | 0 W/m² | - |
| 1777570000 | 17.22° C | 52% | 1023.6 hPa | 0 mm | - | 0 W/m² | - |
| 1777568500 | 18.33° C | 50% | 1023.6 hPa | 0 mm | - | 0 W/m² | - |
| 1777568200 | 18.33° C | 50% | 1023.6 hPa | 0 mm | - | 0 W/m² | - |
| 1777563401 | 23.89° C | 41% | 1022.3 hPa | 0 mm | - | 0 W/m² | - |
| 1777562800 | 23.89° C | 41% | 1022.3 hPa | 0 mm | - | 0 W/m² | - |
| 1777560401 | 23.33° C | 43% | 1022.3 hPa | 0 mm | - | 0 W/m² | - |
| 1777557675 | 22.78° C | 46% | 1022.7 hPa | 0 mm | - | 0 W/m² | - |
| 1777557375 | 22.78° C | 48% | 1022.7 hPa | 0 mm | - | 0 W/m² | - |
| 1777556175 | 21.67° C | 49% | 1022.7 hPa | 0 mm | - | 0 W/m² | - |
| 1777555874 | 22.22° C | 48% | 1022.7 hPa | 0 mm | - | 0 W/m² | - |
| 1777554974 | 20.56° C | 54% | 1022.7 hPa | 0 mm | - | 0 W/m² | - |
| 1777554674 | 19.44° C | 55% | 1023.2 hPa | 0 mm | - | 0 W/m² | - |
| 1777554375 | 20° C | 55% | 1023.2 hPa | 0 mm | - | 0 W/m² | - |
| 1777553774 | 20.56° C | 53% | 1022.7 hPa | 0 mm | - | 0 W/m² | - |
| 1777553475 | 20.56° C | 54% | 1022.7 hPa | 0 mm | - | 0 W/m² | - |
| 1777552575 | 18.89° C | 58% | 1023.2 hPa | 0 mm | - | 0 W/m² | - |
| 1777552274 | 19.44° C | 56% | 1023.2 hPa | 0 mm | - | 0 W/m² | - |
* Rain latest hour (hover to see other rain measurements)
** Current wind speed in m/s (hover to see current wind gust speed)